createdAt,value
2019-05-18T00:02:30.085Z,17.60
2019-05-18T00:05:00.342Z,17.60
2019-05-18T00:07:30.568Z,17.60
2019-05-18T00:10:00.830Z,17.50
2019-05-18T00:12:31.091Z,17.50
2019-05-18T00:15:01.371Z,17.50
2019-05-18T00:17:31.759Z,17.40
2019-05-18T00:20:01.960Z,17.40
2019-05-18T00:22:32.206Z,17.40
2019-05-18T00:25:02.440Z,17.30
2019-05-18T00:27:33.130Z,17.30
2019-05-18T00:30:04.590Z,17.30
2019-05-18T00:32:35.276Z,17.20
2019-05-18T00:35:07.606Z,17.30
2019-05-18T00:37:37.925Z,17.20
2019-05-18T00:40:08.272Z,17.20
2019-05-18T00:42:38.585Z,17.10
2019-05-18T00:45:11.397Z,17.10
2019-05-18T00:47:42.747Z,17.10
2019-05-18T00:50:19.629Z,17.00
2019-05-18T00:52:54.558Z,17.00
2019-05-18T00:55:27.139Z,17.00
2019-05-18T00:58:01.243Z,17.00
2019-05-18T01:00:35.702Z,16.90
2019-05-18T01:03:16.234Z,16.90
2019-05-18T01:05:48.917Z,16.90
2019-05-18T01:08:21.595Z,16.80
2019-05-18T01:11:01.980Z,16.80
2019-05-18T01:13:37.508Z,16.80
2019-05-18T01:16:12.320Z,16.80
2019-05-18T01:18:45.410Z,16.70
2019-05-18T01:21:16.450Z,16.70
2019-05-18T01:23:50.275Z,16.70
2019-05-18T01:26:24.063Z,16.60
2019-05-18T01:29:09.376Z,16.60
2019-05-18T01:31:40.174Z,16.60
2019-05-18T01:34:11.433Z,16.60
2019-05-18T01:36:46.985Z,16.50
2019-05-18T01:39:18.333Z,16.50
2019-05-18T01:41:52.448Z,16.50
2019-05-18T01:44:32.499Z,16.50
2019-05-18T01:47:07.125Z,16.40
2019-05-18T01:49:40.114Z,16.50
2019-05-18T01:52:14.329Z,16.40
2019-05-18T01:54:48.443Z,16.40
2019-05-18T01:57:19.483Z,16.40
2019-05-18T01:59:50.730Z,16.40
2019-05-18T02:02:21.873Z,16.40
2019-05-18T02:04:53.115Z,16.40
2019-05-18T02:07:24.259Z,16.30
2019-05-18T02:09:55.510Z,16.30
2019-05-18T02:12:26.547Z,16.30
2019-05-18T02:14:57.695Z,16.30
2019-05-18T02:17:28.839Z,16.30
2019-05-18T02:20:00.067Z,16.20
2019-05-18T02:22:31.105Z,16.20
2019-05-18T02:25:03.496Z,16.20
2019-05-18T02:27:38.021Z,16.20
2019-05-18T02:30:08.759Z,16.20
2019-05-18T02:32:39.882Z,16.20
2019-05-18T02:35:11.143Z,16.10
2019-05-18T02:37:42.497Z,16.10
2019-05-18T02:40:13.944Z,16.10
2019-05-18T02:42:50.004Z,16.10
2019-05-18T02:45:21.458Z,16.10
2019-05-18T02:47:55.767Z,16.10
2019-05-18T02:50:31.936Z,16.00
2019-05-18T02:53:02.819Z,16.00
2019-05-18T02:55:40.956Z,16.00
2019-05-18T02:58:09.574Z,16.00
2019-05-18T03:00:43.474Z,15.90
2019-05-18T03:03:18.716Z,15.90
2019-05-18T03:05:54.162Z,15.90
2019-05-18T03:08:26.125Z,15.90
2019-05-18T03:11:11.911Z,15.90
2019-05-18T03:13:47.147Z,15.80
2019-05-18T03:16:18.196Z,15.80
2019-05-18T03:19:06.783Z,15.80
2019-05-18T03:21:21.911Z,15.70
2019-05-18T03:23:53.162Z,15.80
2019-05-18T03:26:41.231Z,15.70
2019-05-18T03:29:23.781Z,15.70
2019-05-18T03:31:56.495Z,15.70
2019-05-18T03:34:30.297Z,15.70
2019-05-18T03:37:01.547Z,15.60
2019-05-18T03:39:35.629Z,15.60
2019-05-18T03:42:13.678Z,15.60
2019-05-18T03:44:44.790Z,15.60
2019-05-18T03:47:27.828Z,15.60
2019-05-18T03:50:04.611Z,15.60
2019-05-18T03:52:35.951Z,15.60
2019-05-18T03:55:10.072Z,15.60
2019-05-18T03:57:44.078Z,15.60
2019-05-18T04:00:15.226Z,15.60
2019-05-18T04:02:52.722Z,15.50
2019-05-18T04:05:34.409Z,15.60
2019-05-18T04:08:08.010Z,15.60
2019-05-18T04:10:38.407Z,15.60
2019-05-18T04:13:08.671Z,15.50
2019-05-18T04:15:38.890Z,15.50
2019-05-18T04:18:09.232Z,15.50
2019-05-18T04:20:39.450Z,15.50
2019-05-18T04:23:09.653Z,15.50
2019-05-18T04:25:43.572Z,15.50
2019-05-18T04:28:11.849Z,15.50
2019-05-18T04:30:42.114Z,15.50
2019-05-18T04:33:12.334Z,15.50
2019-05-18T04:35:42.525Z,15.50
2019-05-18T04:38:12.746Z,15.50
2019-05-18T04:40:42.953Z,15.50
2019-05-18T04:43:13.192Z,15.50
2019-05-18T04:45:43.403Z,15.50
2019-05-18T04:48:13.621Z,15.50
2019-05-18T04:50:43.823Z,15.50
2019-05-18T04:53:14.123Z,15.50
2019-05-18T04:55:44.306Z,15.50
2019-05-18T04:58:15.596Z,15.50
2019-05-18T05:00:46.017Z,15.50
2019-05-18T05:03:16.278Z,15.50
2019-05-18T05:05:46.479Z,15.50
2019-05-18T05:08:17.330Z,15.50
2019-05-18T05:10:47.511Z,15.50
2019-05-18T05:13:17.716Z,15.50
2019-05-18T05:15:47.902Z,15.50
2019-05-18T05:18:18.130Z,15.50
2019-05-18T05:20:48.321Z,15.50
2019-05-18T05:23:18.548Z,15.50
2019-05-18T05:25:48.745Z,15.50
2019-05-18T05:28:18.969Z,15.60
2019-05-18T05:30:49.177Z,15.50
2019-05-18T05:33:19.412Z,15.50
2019-05-18T05:35:49.604Z,15.60
2019-05-18T05:38:19.845Z,15.60
2019-05-18T05:40:50.065Z,15.60
2019-05-18T05:43:20.283Z,15.60
2019-05-18T05:45:50.508Z,15.60
2019-05-18T05:48:20.739Z,15.60
2019-05-18T05:50:51.014Z,15.60
2019-05-18T05:53:21.210Z,15.60
2019-05-18T05:55:51.404Z,15.70
2019-05-18T05:58:21.596Z,15.70
2019-05-18T06:00:51.829Z,15.70
2019-05-18T06:03:22.313Z,15.70
2019-05-18T06:05:52.592Z,15.80
2019-05-18T06:08:22.814Z,15.80
2019-05-18T06:10:53.003Z,16.20
2019-05-18T06:13:23.232Z,15.80
2019-05-18T06:15:53.419Z,15.90
2019-05-18T06:18:23.639Z,15.90
2019-05-18T06:20:53.829Z,15.90
2019-05-18T06:23:24.062Z,15.90
2019-05-18T06:25:54.284Z,16.00
2019-05-18T06:28:24.586Z,16.00
2019-05-18T06:30:54.784Z,16.00
2019-05-18T06:33:24.987Z,16.00
2019-05-18T06:35:55.234Z,16.00
2019-05-18T06:38:25.437Z,16.10
2019-05-18T06:40:55.763Z,16.10
2019-05-18T06:43:25.990Z,16.20
2019-05-18T06:45:56.226Z,16.20
2019-05-18T06:48:26.419Z,16.20
2019-05-18T06:51:06.686Z,16.30
2019-05-18T06:53:28.634Z,16.30
2019-05-18T06:55:58.840Z,16.30
2019-05-18T06:58:29.044Z,16.30
2019-05-18T07:00:59.329Z,16.30
2019-05-18T07:03:29.579Z,16.40
2019-05-18T07:05:59.862Z,16.40
2019-05-18T07:08:30.110Z,16.40
2019-05-18T07:11:00.329Z,16.40
2019-05-18T07:13:30.835Z,16.40
2019-05-18T07:16:01.130Z,16.50
2019-05-18T07:18:31.398Z,16.50
2019-05-18T07:21:01.700Z,16.50
2019-05-18T07:23:31.884Z,16.50
2019-05-18T07:26:02.117Z,16.60
2019-05-18T07:28:32.469Z,16.60
2019-05-18T07:31:02.728Z,16.60
2019-05-18T07:33:32.984Z,16.60
2019-05-18T07:36:03.199Z,16.60
2019-05-18T07:38:33.397Z,16.70
2019-05-18T07:41:03.645Z,16.70
2019-05-18T07:43:33.840Z,16.70
2019-05-18T07:46:04.142Z,16.70
2019-05-18T07:48:34.428Z,16.80
2019-05-18T07:51:04.705Z,16.80
2019-05-18T07:53:35.007Z,16.80
2019-05-18T07:56:05.315Z,16.90
2019-05-18T07:58:35.697Z,17.00
2019-05-18T08:01:05.963Z,17.00
2019-05-18T08:03:36.193Z,17.10
2019-05-18T08:06:06.394Z,17.20
2019-05-18T08:08:36.611Z,17.30
2019-05-18T08:11:06.822Z,17.30
2019-05-18T08:13:37.054Z,17.40
2019-05-18T08:16:07.261Z,17.50
2019-05-18T08:18:37.502Z,17.60
2019-05-18T08:21:07.694Z,17.60
2019-05-18T08:23:37.922Z,17.70
2019-05-18T08:26:08.120Z,17.80
2019-05-18T08:28:39.427Z,17.90
2019-05-18T08:31:09.682Z,17.90
2019-05-18T08:33:39.910Z,18.00
2019-05-18T08:36:10.123Z,18.10
2019-05-18T08:38:40.427Z,18.10
2019-05-18T08:41:10.634Z,18.20
2019-05-18T08:43:40.867Z,18.20
2019-05-18T08:46:11.157Z,18.30
2019-05-18T08:48:41.454Z,18.40
2019-05-18T08:51:11.700Z,18.50
2019-05-18T08:53:44.067Z,18.60
2019-05-18T08:56:14.024Z,18.60
2019-05-18T08:58:44.254Z,18.70
2019-05-18T09:01:14.450Z,18.80
2019-05-18T09:03:45.928Z,18.80
2019-05-18T09:06:16.202Z,18.90
2019-05-18T09:08:46.840Z,19.00
2019-05-18T09:11:17.046Z,19.00
2019-05-18T09:13:47.284Z,19.10
2019-05-18T09:16:17.535Z,19.20
2019-05-18T09:18:47.814Z,19.20
2019-05-18T09:21:18.075Z,19.30
2019-05-18T09:23:48.359Z,19.30
2019-05-18T09:26:18.661Z,19.40
2019-05-18T09:28:49.001Z,19.40
2019-05-18T09:31:19.199Z,19.50
2019-05-18T09:33:50.496Z,19.50
2019-05-18T09:36:20.738Z,19.60
2019-05-18T09:38:50.940Z,19.60
2019-05-18T09:41:21.164Z,19.70
2019-05-18T09:43:51.445Z,19.70
2019-05-18T09:46:21.649Z,19.80
2019-05-18T09:48:51.874Z,19.80
2019-05-18T09:51:22.081Z,19.90
2019-05-18T09:53:52.301Z,19.90
2019-05-18T09:56:22.576Z,19.90
2019-05-18T09:58:52.784Z,19.90
2019-05-18T10:01:23.073Z,19.90
2019-05-18T10:03:53.312Z,20.00
2019-05-18T10:06:23.509Z,20.00
2019-05-18T10:08:53.806Z,20.10
2019-05-18T10:11:24.109Z,20.10
2019-05-18T10:13:54.446Z,20.20
2019-05-18T10:16:24.663Z,20.30
2019-05-18T10:18:54.956Z,20.30
2019-05-18T10:21:25.197Z,20.40
2019-05-18T10:23:55.754Z,20.50
2019-05-18T10:26:25.978Z,20.60
2019-05-18T10:28:56.305Z,20.60
2019-05-18T10:31:26.510Z,20.70
2019-05-18T10:33:56.809Z,20.80
2019-05-18T10:36:27.097Z,20.90
2019-05-18T10:38:57.374Z,20.90
2019-05-18T10:41:27.597Z,21.00
2019-05-18T10:43:57.827Z,21.10
2019-05-18T10:46:28.047Z,21.10
2019-05-18T10:48:58.253Z,21.20
2019-05-18T10:51:28.471Z,21.30
2019-05-18T10:53:58.672Z,21.40
2019-05-18T10:56:31.229Z,21.40
2019-05-18T10:59:00.912Z,21.50
2019-05-18T11:01:31.124Z,21.50
2019-05-18T11:04:01.404Z,21.60
2019-05-18T11:06:31.637Z,21.60
2019-05-18T11:09:04.163Z,21.70
2019-05-18T11:11:34.440Z,21.80
2019-05-18T11:14:04.647Z,21.80
2019-05-18T11:16:34.859Z,21.80
2019-05-18T11:19:05.075Z,21.90
2019-05-18T11:21:35.271Z,21.90
2019-05-18T11:24:05.490Z,21.90
2019-05-18T11:26:36.798Z,21.90
2019-05-18T11:29:06.996Z,21.90
2019-05-18T11:31:37.238Z,21.90
2019-05-18T11:34:07.426Z,21.90
2019-05-18T11:36:37.628Z,22.00
2019-05-18T11:39:07.910Z,22.00
2019-05-18T11:41:38.256Z,21.90
2019-05-18T11:44:10.814Z,21.90
2019-05-18T11:46:40.343Z,21.90
2019-05-18T11:49:10.569Z,21.90
2019-05-18T11:51:40.873Z,21.90
2019-05-18T11:54:11.073Z,21.80
2019-05-18T11:56:41.388Z,21.80
2019-05-18T11:59:11.575Z,21.70
2019-05-18T12:01:41.808Z,21.70
2019-05-18T12:04:12.011Z,21.70
2019-05-18T12:06:42.245Z,21.60
2019-05-18T12:09:12.444Z,21.60
2019-05-18T12:11:42.668Z,21.60
2019-05-18T12:14:12.917Z,21.60
2019-05-18T12:16:43.130Z,21.50
2019-05-18T12:19:13.331Z,21.50
2019-05-18T12:21:43.561Z,21.50
2019-05-18T12:24:15.831Z,21.40
2019-05-18T12:26:45.666Z,21.40
2019-05-18T12:29:15.859Z,21.40
2019-05-18T12:31:46.085Z,21.40
2019-05-18T12:34:17.354Z,21.40
2019-05-18T12:36:47.564Z,21.40
2019-05-18T12:39:17.837Z,21.40
2019-05-18T12:41:48.133Z,21.40
2019-05-18T12:44:18.390Z,21.40
2019-05-18T12:46:48.722Z,21.30
2019-05-18T12:49:18.904Z,21.30
2019-05-18T12:51:49.122Z,21.30
2019-05-18T12:54:29.037Z,21.30
2019-05-18T12:56:51.366Z,21.30
2019-05-18T12:59:21.603Z,21.30
2019-05-18T13:01:51.789Z,21.30
2019-05-18T13:04:22.007Z,21.30
2019-05-18T13:06:53.289Z,21.20
2019-05-18T13:09:23.824Z,21.20
2019-05-18T13:11:55.221Z,21.20
2019-05-18T13:14:25.419Z,21.20
2019-05-18T13:16:55.618Z,21.20
2019-05-18T13:19:25.837Z,21.20
2019-05-18T13:21:56.088Z,21.20
2019-05-18T13:24:26.340Z,21.20
2019-05-18T13:26:57.601Z,21.20
2019-05-18T13:29:27.813Z,21.30
2019-05-18T13:31:58.000Z,21.30
2019-05-18T13:34:28.268Z,21.30
2019-05-18T13:36:58.483Z,21.30
2019-05-18T13:39:28.693Z,21.30
2019-05-18T13:41:58.887Z,21.30
2019-05-18T13:44:30.070Z,21.30
2019-05-18T13:47:00.258Z,21.30
2019-05-18T13:49:30.475Z,21.20
2019-05-18T13:52:00.679Z,21.20
2019-05-18T13:54:30.971Z,21.20
2019-05-18T13:57:01.249Z,21.20
2019-05-18T13:59:31.478Z,21.20
2019-05-18T14:02:01.718Z,21.20
2019-05-18T14:04:31.997Z,21.20
2019-05-18T14:07:02.208Z,21.10
2019-05-18T14:09:32.433Z,21.10
2019-05-18T14:12:02.664Z,21.10
2019-05-18T14:14:32.884Z,21.10
2019-05-18T14:17:03.202Z,21.00
2019-05-18T14:19:33.432Z,21.10
2019-05-18T14:22:03.690Z,21.00
2019-05-18T14:24:33.944Z,21.00
2019-05-18T14:27:04.134Z,21.00
2019-05-18T14:29:34.343Z,21.00
2019-05-18T14:32:04.547Z,21.00
2019-05-18T14:34:34.843Z,21.00
2019-05-18T14:37:05.048Z,21.00
2019-05-18T14:39:35.289Z,20.90
2019-05-18T14:42:05.491Z,20.90
2019-05-18T14:44:35.788Z,20.90
2019-05-18T14:47:06.013Z,20.90
2019-05-18T14:49:36.315Z,20.90
2019-05-18T14:52:06.683Z,20.90
2019-05-18T14:54:36.863Z,20.90
2019-05-18T14:57:07.094Z,20.90
2019-05-18T14:59:37.306Z,20.90
2019-05-18T15:02:08.610Z,20.90
2019-05-18T15:04:38.807Z,21.00
2019-05-18T15:07:09.070Z,21.00
2019-05-18T15:09:39.281Z,21.00
2019-05-18T15:12:09.570Z,21.00
2019-05-18T15:14:39.773Z,21.10
2019-05-18T15:17:10.019Z,21.00
2019-05-18T15:19:40.209Z,21.10
2019-05-18T15:22:10.430Z,21.20
2019-05-18T15:24:40.631Z,21.20
2019-05-18T15:27:10.865Z,21.20
2019-05-18T15:29:41.204Z,21.20
2019-05-18T15:32:11.412Z,21.20
2019-05-18T15:34:41.620Z,21.20
2019-05-18T15:37:11.851Z,21.20
2019-05-18T15:39:42.038Z,21.30
2019-05-18T15:42:12.260Z,21.30
2019-05-18T15:44:42.465Z,21.30
2019-05-18T15:47:12.706Z,21.30
2019-05-18T15:49:42.941Z,21.30
2019-05-18T15:52:13.149Z,21.30
2019-05-18T15:54:43.357Z,21.30
2019-05-18T15:57:13.749Z,21.30
2019-05-18T15:59:43.942Z,21.30
2019-05-18T16:02:14.164Z,21.30
2019-05-18T16:04:44.387Z,21.30
2019-05-18T16:07:14.680Z,21.30
2019-05-18T16:09:44.967Z,21.30
2019-05-18T16:12:15.165Z,21.30
2019-05-18T16:14:45.434Z,21.30
2019-05-18T16:17:15.653Z,21.30
2019-05-18T16:19:46.864Z,21.30
2019-05-18T16:22:17.109Z,21.30
2019-05-18T16:24:47.393Z,21.20
2019-05-18T16:27:17.716Z,21.20
2019-05-18T16:29:48.043Z,21.10
2019-05-18T16:32:18.264Z,21.10
2019-05-18T16:34:48.468Z,21.00
2019-05-18T16:37:18.691Z,21.00
2019-05-18T16:39:48.953Z,21.00
2019-05-18T16:42:19.275Z,20.90
